sensor_id;sensor_type;location;lat;lon;timestamp;pressure;altitude;pressure_sealevel;temperature;humidity
54512;BME280;40419;47.438;19.026;2022-08-21T00:00:45;99214.69;;;18.94;100.00
54512;BME280;40419;47.438;19.026;2022-08-21T00:03:12;99222.38;;;18.97;100.00
54512;BME280;40419;47.438;19.026;2022-08-21T00:05:49;99211.63;;;18.75;100.00
54512;BME280;40419;47.438;19.026;2022-08-21T00:08:16;99217.69;;;18.77;100.00
54512;BME280;40419;47.438;19.026;2022-08-21T00:10:46;99220.41;;;18.77;100.00
54512;BME280;40419;47.438;19.026;2022-08-21T00:13:17;99206.44;;;18.63;100.00
54512;BME280;40419;47.438;19.026;2022-08-21T00:15:49;99194.06;;;18.66;100.00
54512;BME280;40419;47.438;19.026;2022-08-21T00:18:15;99202.03;;;18.67;100.00
54512;BME280;40419;47.438;19.026;2022-08-21T00:20:44;99205.03;;;18.66;100.00
54512;BME280;40419;47.438;19.026;2022-08-21T00:23:10;99202.03;;;18.72;100.00
54512;BME280;40419;47.438;19.026;2022-08-21T00:25:38;99199.84;;;18.59;100.00
54512;BME280;40419;47.438;19.026;2022-08-21T00:28:07;99203.69;;;18.63;100.00
54512;BME280;40419;47.438;19.026;2022-08-21T00:30:39;99196.00;;;18.70;100.00
54512;BME280;40419;47.438;19.026;2022-08-21T00:33:06;99194.34;;;18.64;100.00
54512;BME280;40419;47.438;19.026;2022-08-21T00:35:35;99202.56;;;18.59;100.00
54512;BME280;40419;47.438;19.026;2022-08-21T00:38:05;99196.53;;;18.52;100.00
54512;BME280;40419;47.438;19.026;2022-08-21T00:43:09;99202.56;;;18.44;100.00
54512;BME280;40419;47.438;19.026;2022-08-21T00:45:38;99201.75;;;18.64;100.00
54512;BME280;40419;47.438;19.026;2022-08-21T00:48:06;99203.94;;;18.51;100.00
54512;BME280;40419;47.438;19.026;2022-08-21T00:50:38;99203.38;;;18.39;100.00
54512;BME280;40419;47.438;19.026;2022-08-21T00:53:09;99194.56;;;18.37;100.00
54512;BME280;40419;47.438;19.026;2022-08-21T00:55:39;99203.13;;;18.56;100.00
54512;BME280;40419;47.438;19.026;2022-08-21T00:58:07;99202.53;;;18.33;100.00
54512;BME280;40419;47.438;19.026;2022-08-21T01:00:44;99200.34;;;18.46;100.00
54512;BME280;40419;47.438;19.026;2022-08-21T01:03:13;99202.53;;;18.33;100.00
54512;BME280;40419;47.438;19.026;2022-08-21T01:05:42;99211.56;;;18.34;100.00
54512;BME280;40419;47.438;19.026;2022-08-21T01:08:12;99201.44;;;18.39;100.00
54512;BME280;40419;47.438;19.026;2022-08-21T01:10:40;99197.06;;;18.44;100.00
54512;BME280;40419;47.438;19.026;2022-08-21T01:13:07;99200.06;;;18.37;100.00
54512;BME280;40419;47.438;19.026;2022-08-21T01:15:37;99191.84;;;18.52;100.00
54512;BME280;40419;47.438;19.026;2022-08-21T01:18:08;99189.94;;;18.42;100.00
54512;BME280;40419;47.438;19.026;2022-08-21T01:20:37;99194.06;;;18.50;100.00
54512;BME280;40419;47.438;19.026;2022-08-21T01:23:06;99186.09;;;18.49;100.00
54512;BME280;40419;47.438;19.026;2022-08-21T01:25:34;99185.81;;;18.35;100.00
54512;BME280;40419;47.438;19.026;2022-08-21T01:28:06;99191.53;;;18.28;100.00
54512;BME280;40419;47.438;19.026;2022-08-21T01:30:40;99190.19;;;18.26;100.00
54512;BME280;40419;47.438;19.026;2022-08-21T01:33:07;99186.06;;;18.23;100.00
54512;BME280;40419;47.438;19.026;2022-08-21T01:35:38;99197.56;;;18.25;100.00
54512;BME280;40419;47.438;19.026;2022-08-21T01:38:06;99187.72;;;18.24;100.00
54512;BME280;40419;47.438;19.026;2022-08-21T01:40:37;99184.69;;;18.31;100.00
54512;BME280;40419;47.438;19.026;2022-08-21T01:43:03;99193.72;;;18.31;100.00
54512;BME280;40419;47.438;19.026;2022-08-21T01:45:34;99191.03;;;18.36;100.00
54512;BME280;40419;47.438;19.026;2022-08-21T01:48:02;99189.94;;;18.48;100.00
54512;BME280;40419;47.438;19.026;2022-08-21T01:50:28;99191.56;;;18.33;100.00
54512;BME280;40419;47.438;19.026;2022-08-21T01:52:56;99189.41;;;18.40;100.00
54512;BME280;40419;47.438;19.026;2022-08-21T01:55:23;99184.19;;;18.39;100.00
54512;BME280;40419;47.438;19.026;2022-08-21T01:57:48;99190.22;;;18.36;100.00
54512;BME280;40419;47.438;19.026;2022-08-21T02:00:17;99190.22;;;18.36;100.00
54512;BME280;40419;47.438;19.026;2022-08-21T02:02:45;99188.78;;;18.28;100.00
54512;BME280;40419;47.438;19.026;2022-08-21T02:05:13;99186.91;;;18.34;100.00
54512;BME280;40419;47.438;19.026;2022-08-21T02:07:49;99194.56;;;18.32;100.00
54512;BME280;40419;47.438;19.026;2022-08-21T02:10:27;99194.34;;;18.49;100.00
54512;BME280;40419;47.438;19.026;2022-08-21T02:12:54;99195.97;;;18.45;100.00
54512;BME280;40419;47.438;19.026;2022-08-21T02:15:25;99183.09;;;18.55;100.00
54512;BME280;40419;47.438;19.026;2022-08-21T02:17:56;99178.97;;;18.37;100.00
54512;BME280;40419;47.438;19.026;2022-08-21T02:20:32;99177.59;;;18.35;100.00
54512;BME280;40419;47.438;19.026;2022-08-21T02:23:01;99184.44;;;18.32;100.00
54512;BME280;40419;47.438;19.026;2022-08-21T02:25:28;99182.22;;;18.24;100.00
54512;BME280;40419;47.438;19.026;2022-08-21T02:27:54;99188.25;;;18.21;100.00
54512;BME280;40419;47.438;19.026;2022-08-21T02:30:28;99186.28;;;18.11;100.00
54512;BME280;40419;47.438;19.026;2022-08-21T02:32:57;99184.13;;;18.18;100.00
54512;BME280;40419;47.438;19.026;2022-08-21T02:35:26;99194.84;;;18.35;100.00
54512;BME280;40419;47.438;19.026;2022-08-21T02:38:01;99178.66;;;18.23;100.00
54512;BME280;40419;47.438;19.026;2022-08-21T02:40:33;99169.88;;;18.16;100.00
54512;BME280;40419;47.438;19.026;2022-08-21T02:43:04;99176.19;;;18.17;100.00
54512;BME280;40419;47.438;19.026;2022-08-21T02:45:30;99165.53;;;18.26;100.00
54512;BME280;40419;47.438;19.026;2022-08-21T02:48:08;99164.69;;;18.20;100.00
54512;BME280;40419;47.438;19.026;2022-08-21T02:50:48;99163.56;;;18.16;100.00
54512;BME280;40419;47.438;19.026;2022-08-21T02:53:19;99156.97;;;18.01;100.00
54512;BME280;40419;47.438;19.026;2022-08-21T02:55:49;99154.97;;;17.86;100.00
54512;BME280;40419;47.438;19.026;2022-08-21T02:58:25;99173.03;;;17.87;100.00
54512;BME280;40419;47.438;19.026;2022-08-21T03:00:52;99179.41;;;18.03;100.00
54512;BME280;40419;47.438;19.026;2022-08-21T03:03:23;99179.16;;;18.05;100.00
54512;BME280;40419;47.438;19.026;2022-08-21T03:05:51;99179.41;;;18.09;100.00
54512;BME280;40419;47.438;19.026;2022-08-21T03:08:24;99178.28;;;17.99;100.00
54512;BME280;40419;47.438;19.026;2022-08-21T03:10:51;99172.84;;;18.04;100.00
54512;BME280;40419;47.438;19.026;2022-08-21T03:13:18;99178.88;;;18.01;100.00
54512;BME280;40419;47.438;19.026;2022-08-21T03:15:46;99160.78;;;17.95;100.00
54512;BME280;40419;47.438;19.026;2022-08-21T03:18:18;99172.56;;;18.01;100.00
54512;BME280;40419;47.438;19.026;2022-08-21T03:20:46;99163.53;;;18.00;100.00
54512;BME280;40419;47.438;19.026;2022-08-21T03:23:12;99171.75;;;18.00;100.00
54512;BME280;40419;47.438;19.026;2022-08-21T03:25:41;99178.84;;;17.96;100.00
54512;BME280;40419;47.438;19.026;2022-08-21T03:28:12;99174.47;;;18.05;100.00
54512;BME280;40419;47.438;19.026;2022-08-21T03:30:42;99178.28;;;17.99;100.00
54512;BME280;40419;47.438;19.026;2022-08-21T03:33:10;99177.22;;;18.00;100.00
54512;BME280;40419;47.438;19.026;2022-08-21T03:35:41;99187.41;;;18.10;100.00
54512;BME280;40419;47.438;19.026;2022-08-21T03:38:07;99187.09;;;18.01;100.00
54512;BME280;40419;47.438;19.026;2022-08-21T03:40:35;99186.81;;;18.08;100.00
54512;BME280;40419;47.438;19.026;2022-08-21T03:43:01;99185.16;;;18.07;100.00
54512;BME280;40419;47.438;19.026;2022-08-21T03:45:29;99174.50;;;18.11;100.00
54512;BME280;40419;47.438;19.026;2022-08-21T03:47:57;99175.63;;;18.15;100.00
54512;BME280;40419;47.438;19.026;2022-08-21T03:50:25;99182.16;;;18.09;100.00
54512;BME280;40419;47.438;19.026;2022-08-21T03:52:51;99183.59;;;18.16;100.00
54512;BME280;40419;47.438;19.026;2022-08-21T03:55:22;99186.25;;;17.96;100.00
54512;BME280;40419;47.438;19.026;2022-08-21T03:57:47;99178.88;;;18.01;100.00
54512;BME280;40419;47.438;19.026;2022-08-21T04:00:14;99183.22;;;17.92;100.00
54512;BME280;40419;47.438;19.026;2022-08-21T04:02:45;99180.50;;;17.97;100.00
54512;BME280;40419;47.438;19.026;2022-08-21T04:05:12;99181.03;;;17.99;100.00
54512;BME280;40419;47.438;19.026;2022-08-21T04:07:55;99190.16;;;18.15;100.00
54512;BME280;40419;47.438;19.026;2022-08-21T04:10:27;99193.06;;;17.93;100.00
54512;BME280;40419;47.438;19.026;2022-08-21T04:12:57;99194.78;;;18.10;100.00
54512;BME280;40419;47.438;19.026;2022-08-21T04:15:24;99189.03;;;18.11;100.00
54512;BME280;40419;47.438;19.026;2022-08-21T04:17:50;99186.81;;;18.03;100.00
54512;BME280;40419;47.438;19.026;2022-08-21T04:20:21;99200.56;;;18.18;100.00
54512;BME280;40419;47.438;19.026;2022-08-21T04:22:48;99199.75;;;18.18;100.00
54512;BME280;40419;47.438;19.026;2022-08-21T04:25:18;99205.22;;;18.18;100.00
54512;BME280;40419;47.438;19.026;2022-08-21T04:27:47;99204.16;;;18.24;100.00
54512;BME280;40419;47.438;19.026;2022-08-21T04:30:14;99202.75;;;18.21;100.00
54512;BME280;40419;47.438;19.026;2022-08-21T04:32:49;99207.75;;;18.45;100.00
54512;BME280;40419;47.438;19.026;2022-08-21T04:35:23;99204.44;;;18.38;100.00
54512;BME280;40419;47.438;19.026;2022-08-21T04:37:49;99211.31;;;18.40;100.00
54512;BME280;40419;47.438;19.026;2022-08-21T04:40:17;99211.03;;;18.32;100.00
54512;BME280;40419;47.438;19.026;2022-08-21T04:42:48;99204.44;;;18.38;100.00
54512;BME280;40419;47.438;19.026;2022-08-21T04:45:31;99214.03;;;18.35;100.00
54512;BME280;40419;47.438;19.026;2022-08-21T04:47:58;99217.31;;;18.32;100.00
54512;BME280;40419;47.438;19.026;2022-08-21T04:53:08;99213.50;;;18.38;100.00
54512;BME280;40419;47.438;19.026;2022-08-21T04:55:39;99222.56;;;18.49;100.00
54512;BME280;40419;47.438;19.026;2022-08-21T04:58:11;99222.00;;;18.52;100.00
54512;BME280;40419;47.438;19.026;2022-08-21T05:00:43;99217.63;;;18.46;100.00
54512;BME280;40419;47.438;19.026;2022-08-21T05:03:10;99220.91;;;18.53;100.00
54512;BME280;40419;47.438;19.026;2022-08-21T05:05:40;99219.00;;;18.49;100.00
54512;BME280;40419;47.438;19.026;2022-08-21T05:08:07;99228.34;;;18.53;100.00
54512;BME280;40419;47.438;19.026;2022-08-21T05:10:36;99218.72;;;18.45;100.00
54512;BME280;40419;47.438;19.026;2022-08-21T05:13:05;99223.41;;;18.55;100.00
54512;BME280;40419;47.438;19.026;2022-08-21T05:15:31;99227.53;;;18.57;100.00
54512;BME280;40419;47.438;19.026;2022-08-21T05:17:59;99221.22;;;18.62;100.00
54512;BME280;40419;47.438;19.026;2022-08-21T05:20:27;99216.56;;;18.57;100.00
54512;BME280;40419;47.438;19.026;2022-08-21T05:22:55;99214.34;;;18.54;100.00
54512;BME280;40419;47.438;19.026;2022-08-21T05:25:24;99228.06;;;18.59;100.00
54512;BME280;40419;47.438;19.026;2022-08-21T05:27:53;99225.63;;;18.63;100.00
54512;BME280;40419;47.438;19.026;2022-08-21T05:30:20;99222.03;;;18.63;100.00
54512;BME280;40419;47.438;19.026;2022-08-21T05:32:46;99223.41;;;18.60;100.00
54512;BME280;40419;47.438;19.026;2022-08-21T05:35:14;99222.34;;;18.66;100.00
54512;BME280;40419;47.438;19.026;2022-08-21T05:37:42;99217.38;;;18.73;100.00
54512;BME280;40419;47.438;19.026;2022-08-21T05:40:12;99220.16;;;18.78;100.00
54512;BME280;40419;47.438;19.026;2022-08-21T05:42:37;99223.13;;;18.72;100.00
54512;BME280;40419;47.438;19.026;2022-08-21T05:45:08;99228.91;;;18.70;100.00
54512;BME280;40419;47.438;19.026;2022-08-21T05:47:33;99216.56;;;18.78;100.00
54512;BME280;40419;47.438;19.026;2022-08-21T05:50:01;99216.31;;;18.80;100.00
54512;BME280;40419;47.438;19.026;2022-08-21T05:52:34;99222.59;;;18.75;100.00
54512;BME280;40419;47.438;19.026;2022-08-21T05:55:03;99219.03;;;18.74;100.00
54512;BME280;40419;47.438;19.026;2022-08-21T05:57:29;99214.66;;;18.78;100.00
54512;BME280;40419;47.438;19.026;2022-08-21T05:59:57;99211.38;;;18.82;100.00
54512;BME280;40419;47.438;19.026;2022-08-21T06:02:27;99214.66;;;18.78;100.00
54512;BME280;40419;47.438;19.026;2022-08-21T06:04:56;99208.94;;;18.95;100.00
54512;BME280;40419;47.438;19.026;2022-08-21T06:07:28;99220.16;;;18.99;100.00
54512;BME280;40419;47.438;19.026;2022-08-21T06:09:54;99223.75;;;18.94;100.00
54512;BME280;40419;47.438;19.026;2022-08-21T06:12:22;99216.88;;;18.87;100.00
54512;BME280;40419;47.438;19.026;2022-08-21T06:14:47;99224.31;;;19.07;100.00
54512;BME280;40419;47.438;19.026;2022-08-21T06:17:13;99238.28;;;19.10;100.00
54512;BME280;40419;47.438;19.026;2022-08-21T06:19:43;99233.34;;;19.28;100.00
54512;BME280;40419;47.438;19.026;2022-08-21T06:22:11;99234.72;;;19.36;100.00
54512;BME280;40419;47.438;19.026;2022-08-21T06:24:42;99233.03;;;19.50;100.00
54512;BME280;40419;47.438;19.026;2022-08-21T06:27:10;99241.84;;;19.37;100.00
54512;BME280;40419;47.438;19.026;2022-08-21T06:29:38;99232.78;;;19.46;100.00
54512;BME280;40419;47.438;19.026;2022-08-21T06:32:06;99242.88;;;19.66;100.00
54512;BME280;40419;47.438;19.026;2022-08-21T06:34:38;99242.06;;;19.71;100.00
54512;BME280;40419;47.438;19.026;2022-08-21T06:37:07;99243.47;;;19.58;100.00
54512;BME280;40419;47.438;19.026;2022-08-21T06:39:35;99251.97;;;19.62;100.00
54512;BME280;40419;47.438;19.026;2022-08-21T06:42:09;99243.44;;;19.79;100.00
54512;BME280;40419;47.438;19.026;2022-08-21T06:44:38;99245.63;;;19.87;100.00
54512;BME280;40419;47.438;19.026;2022-08-21T06:47:04;99258.00;;;19.79;100.00
54512;BME280;40419;47.438;19.026;2022-08-21T06:49:32;99242.81;;;20.03;100.00
54512;BME280;40419;47.438;19.026;2022-08-21T06:51:57;99250.56;;;20.50;98.61
54512;BME280;40419;47.438;19.026;2022-08-21T06:54:23;99244.97;;;20.11;99.69
54512;BME280;40419;47.438;19.026;2022-08-21T06:56:49;99250.63;;;20.35;100.00
54512;BME280;40419;47.438;19.026;2022-08-21T06:59:19;99243.72;;;20.48;100.00
54512;BME280;40419;47.438;19.026;2022-08-21T07:01:47;99241.88;;;20.33;97.69
54512;BME280;40419;47.438;19.026;2022-08-21T07:04:15;99244.56;;;20.38;97.48
54512;BME280;40419;47.438;19.026;2022-08-21T07:06:43;99246.47;;;20.48;97.13
54512;BME280;40419;47.438;19.026;2022-08-21T07:09:11;99245.94;;;20.41;97.38
54512;BME280;40419;47.438;19.026;2022-08-21T07:11:40;99239.00;;;20.53;98.04
54512;BME280;40419;47.438;19.026;2022-08-21T07:14:08;99243.31;;;20.75;97.78
54512;BME280;40419;47.438;19.026;2022-08-21T07:16:34;99236.16;;;20.74;95.83
54512;BME280;40419;47.438;19.026;2022-08-21T07:19:04;99241.06;;;20.82;96.27
54512;BME280;40419;47.438;19.026;2022-08-21T07:21:29;99236.75;;;21.05;95.25
54512;BME280;40419;47.438;19.026;2022-08-21T07:23:55;99235.50;;;21.22;93.84
54512;BME280;40419;47.438;19.026;2022-08-21T07:26:22;99242.97;;;21.21;92.60
54512;BME280;40419;47.438;19.026;2022-08-21T07:28:48;99239.84;;;20.94;95.99
54512;BME280;40419;47.438;19.026;2022-08-21T07:31:16;99240.88;;;21.03;94.55
54512;BME280;40419;47.438;19.026;2022-08-21T07:33:42;99242.16;;;20.81;93.42
54512;BME280;40419;47.438;19.026;2022-08-21T07:36:11;99246.06;;;20.75;94.56
54512;BME280;40419;47.438;19.026;2022-08-21T07:38:37;99246.44;;;20.98;95.65
54512;BME280;40419;47.438;19.026;2022-08-21T07:41:13;99242.66;;;20.88;93.37
54512;BME280;40419;47.438;19.026;2022-08-21T07:43:41;99236.63;;;20.86;94.28
54512;BME280;40419;47.438;19.026;2022-08-21T07:46:06;99238.06;;;21.13;95.98
54512;BME280;40419;47.438;19.026;2022-08-21T07:48:34;99234.13;;;21.24;94.04
54512;BME280;40419;47.438;19.026;2022-08-21T07:51:04;99234.66;;;20.92;95.68
54512;BME280;40419;47.438;19.026;2022-08-21T07:53:34;99237.78;;;21.44;92.82
54512;BME280;40419;47.438;19.026;2022-08-21T07:56:03;99239.69;;;21.49;93.64
54512;BME280;40419;47.438;19.026;2022-08-21T07:58:30;99234.16;;;21.49;92.01
54512;BME280;40419;47.438;19.026;2022-08-21T08:00:58;99230.50;;;21.29;91.63
54512;BME280;40419;47.438;19.026;2022-08-21T08:03:24;99228.00;;;21.62;88.55
54512;BME280;40419;47.438;19.026;2022-08-21T08:05:55;99225.19;;;21.67;90.26
54512;BME280;40419;47.438;19.026;2022-08-21T08:08:20;99228.53;;;21.35;91.58
54512;BME280;40419;47.438;19.026;2022-08-21T08:10:51;99226.38;;;21.85;91.12
54512;BME280;40419;47.438;19.026;2022-08-21T08:13:22;99221.44;;;22.06;88.85
54512;BME280;40419;47.438;19.026;2022-08-21T08:15:50;99208.56;;;21.77;87.85
54512;BME280;40419;47.438;19.026;2022-08-21T08:18:18;99215.81;;;21.10;90.13
54512;BME280;40419;47.438;19.026;2022-08-21T08:20:46;99210.13;;;21.59;89.41
54512;BME280;40419;47.438;19.026;2022-08-21T08:23:17;99206.94;;;21.47;91.56
54512;BME280;40419;47.438;19.026;2022-08-21T08:25:43;99204.59;;;21.30;90.13
54512;BME280;40419;47.438;19.026;2022-08-21T08:28:11;99204.44;;;21.75;91.27
54512;BME280;40419;47.438;19.026;2022-08-21T08:30:39;99205.88;;;22.16;86.91
54512;BME280;40419;47.438;19.026;2022-08-21T08:33:07;99200.97;;;21.88;87.76
54512;BME280;40419;47.438;19.026;2022-08-21T08:35:32;99198.69;;;21.95;89.26
54512;BME280;40419;47.438;19.026;2022-08-21T08:37:58;99206.25;;;22.09;86.92
54512;BME280;40419;47.438;19.026;2022-08-21T08:40:39;99205.59;;;22.17;87.35
54512;BME280;40419;47.438;19.026;2022-08-21T08:43:14;99208.03;;;22.00;85.61
54512;BME280;40419;47.438;19.026;2022-08-21T08:45:45;99202.31;;;22.15;89.60
54512;BME280;40419;47.438;19.026;2022-08-21T08:51:00;99205.22;;;22.48;87.34
54512;BME280;40419;47.438;19.026;2022-08-21T08:56:00;99208.53;;;22.83;86.03
54512;BME280;40419;47.438;19.026;2022-08-21T08:58:32;99198.16;;;22.75;85.50
54512;BME280;40419;47.438;19.026;2022-08-21T09:00:58;99203.84;;;22.64;87.19
54512;BME280;40419;47.438;19.026;2022-08-21T09:03:25;99202.97;;;22.50;85.06
54512;BME280;40419;47.438;19.026;2022-08-21T09:08:44;99201.97;;;22.60;88.38
54512;BME280;40419;47.438;19.026;2022-08-21T09:14:15;99202.88;;;22.74;84.85
54512;BME280;40419;47.438;19.026;2022-08-21T09:27:18;99192.19;;;22.68;82.35
54512;BME280;40419;47.438;19.026;2022-08-21T09:29:47;99204.81;;;22.74;86.94
54512;BME280;40419;47.438;19.026;2022-08-21T09:32:17;99193.25;;;22.72;86.25
54512;BME280;40419;47.438;19.026;2022-08-21T09:35:04;99199.00;;;22.75;86.71
54512;BME280;40419;47.438;19.026;2022-08-21T09:37:44;99194.00;;;22.58;85.88
54512;BME280;40419;47.438;19.026;2022-08-21T09:40:40;99203.56;;;22.99;84.93
54512;BME280;40419;47.438;19.026;2022-08-21T09:43:23;99193.75;;;23.26;83.72
54512;BME280;40419;47.438;19.026;2022-08-21T09:46:11;99204.59;;;23.69;81.03
54512;BME280;40419;47.438;19.026;2022-08-21T09:48:44;99196.56;;;23.40;82.04
54512;BME280;40419;47.438;19.026;2022-08-21T09:51:15;99196.84;;;23.38;81.30
54512;BME280;40419;47.438;19.026;2022-08-21T09:53:51;99191.78;;;23.12;81.15
54512;BME280;40419;47.438;19.026;2022-08-21T09:56:57;99198.44;;;22.92;83.47
54512;BME280;40419;47.438;19.026;2022-08-21T09:59:46;99203.16;;;22.92;82.83
54512;BME280;40419;47.438;19.026;2022-08-21T10:02:27;99194.47;;;23.17;82.58
54512;BME280;40419;47.438;19.026;2022-08-21T10:04:59;99193.38;;;22.99;82.77
54512;BME280;40419;47.438;19.026;2022-08-21T10:07:27;99197.09;;;22.90;81.31
54512;BME280;40419;47.438;19.026;2022-08-21T10:10:13;99188.91;;;22.85;81.36
54512;BME280;40419;47.438;19.026;2022-08-21T10:12:48;99198.34;;;22.97;81.90
54512;BME280;40419;47.438;19.026;2022-08-21T10:15:27;99202.06;;;22.74;83.07
54512;BME280;40419;47.438;19.026;2022-08-21T10:18:40;99199.47;;;23.15;83.71
54512;BME280;40419;47.438;19.026;2022-08-21T10:23:51;99205.78;;;23.49;81.64
54512;BME280;40419;47.438;19.026;2022-08-21T10:37:27;99199.66;;;24.08;78.77
54512;BME280;40419;47.438;19.026;2022-08-21T10:40:24;99203.19;;;23.99;74.19
54512;BME280;40419;47.438;19.026;2022-08-21T10:54:25;99196.13;;;22.99;80.96
54512;BME280;40419;47.438;19.026;2022-08-21T10:57:00;99196.63;;;23.21;78.92
54512;BME280;40419;47.438;19.026;2022-08-21T10:59:49;99194.31;;;23.09;80.80
54512;BME280;40419;47.438;19.026;2022-08-21T11:02:25;99193.47;;;22.75;81.54
54512;BME280;40419;47.438;19.026;2022-08-21T11:05:02;99202.03;;;22.93;82.15
54512;BME280;40419;47.438;19.026;2022-08-21T11:07:45;99194.81;;;22.78;81.48
54512;BME280;40419;47.438;19.026;2022-08-21T11:10:25;99189.25;;;22.97;84.80
54512;BME280;40419;47.438;19.026;2022-08-21T11:13:00;99184.03;;;22.95;81.10
54512;BME280;40419;47.438;19.026;2022-08-21T11:15:35;99179.84;;;23.17;80.73
54512;BME280;40419;47.438;19.026;2022-08-21T11:23:56;99193.41;;;23.46;79.29
54512;BME280;40419;47.438;19.026;2022-08-21T11:26:45;99185.38;;;23.31;79.45
54512;BME280;40419;47.438;19.026;2022-08-21T11:32:01;99193.50;;;23.55;77.96
54512;BME280;40419;47.438;19.026;2022-08-21T11:34:38;99182.84;;;23.34;79.79
54512;BME280;40419;47.438;19.026;2022-08-21T11:37:17;99182.66;;;23.45;79.59
54512;BME280;40419;47.438;19.026;2022-08-21T11:42:52;99185.50;;;23.07;79.45
54512;BME280;40419;47.438;19.026;2022-08-21T11:51:14;99173.50;;;22.97;80.13
54512;BME280;40419;47.438;19.026;2022-08-21T11:53:52;99169.91;;;22.83;80.82
54512;BME280;40419;47.438;19.026;2022-08-21T11:56:41;99167.47;;;22.95;80.64
54512;BME280;40419;47.438;19.026;2022-08-21T11:59:18;99160.13;;;22.91;81.28
54512;BME280;40419;47.438;19.026;2022-08-21T12:01:48;99162.03;;;22.90;81.82
54512;BME280;40419;47.438;19.026;2022-08-21T12:04:30;99165.78;;;22.99;80.26
54512;BME280;40419;47.438;19.026;2022-08-21T12:07:16;99162.03;;;22.90;80.20
54512;BME280;40419;47.438;19.026;2022-08-21T12:09:54;99160.69;;;22.74;81.35
54512;BME280;40419;47.438;19.026;2022-08-21T12:12:34;99162.84;;;22.77;81.43
54512;BME280;40419;47.438;19.026;2022-08-21T12:18:31;99167.31;;;22.73;83.51
54512;BME280;40419;47.438;19.026;2022-08-21T12:26:49;99164.03;;;23.04;83.30
54512;BME280;40419;47.438;19.026;2022-08-21T12:29:25;99161.78;;;23.06;82.40
54512;BME280;40419;47.438;19.026;2022-08-21T12:32:04;99157.81;;;22.79;84.94
54512;BME280;40419;47.438;19.026;2022-08-21T12:34:38;99152.03;;;22.94;83.13
54512;BME280;40419;47.438;19.026;2022-08-21T12:37:19;99150.59;;;22.83;84.78
54512;BME280;40419;47.438;19.026;2022-08-21T12:39:52;99153.25;;;22.88;85.30
54512;BME280;40419;47.438;19.026;2022-08-21T12:42:39;99153.19;;;22.93;83.28
54512;BME280;40419;47.438;19.026;2022-08-21T12:45:28;99142.50;;;22.87;84.42
54512;BME280;40419;47.438;19.026;2022-08-21T12:48:12;99140.16;;;22.80;85.88
54512;BME280;40419;47.438;19.026;2022-08-21T12:50:53;99139.91;;;22.76;84.56
54512;BME280;40419;47.438;19.026;2022-08-21T12:53:51;99138.75;;;22.63;85.97
54512;BME280;40419;47.438;19.026;2022-08-21T12:56:22;99144.03;;;22.79;84.48
54512;BME280;40419;47.438;19.026;2022-08-21T12:59:10;99138.31;;;22.56;85.60
54512;BME280;40419;47.438;19.026;2022-08-21T13:01:48;99127.75;;;22.44;87.14
54512;BME280;40419;47.438;19.026;2022-08-21T13:04:19;99129.75;;;22.39;86.54
54512;BME280;40419;47.438;19.026;2022-08-21T13:06:54;99132.00;;;22.37;86.05
54512;BME280;40419;47.438;19.026;2022-08-21T13:09:28;99124.84;;;22.36;87.37
54512;BME280;40419;47.438;19.026;2022-08-21T13:11:57;99127.03;;;22.15;88.98
54512;BME280;40419;47.438;19.026;2022-08-21T13:14:44;99126.06;;;22.05;89.95
54512;BME280;40419;47.438;19.026;2022-08-21T13:17:10;99120.06;;;22.03;88.83
54512;BME280;40419;47.438;19.026;2022-08-21T13:19:37;99126.59;;;21.88;91.04
54512;BME280;40419;47.438;19.026;2022-08-21T13:22:03;99131.28;;;22.07;90.17
54512;BME280;40419;47.438;19.026;2022-08-21T13:24:37;99139.59;;;21.83;92.86
54512;BME280;40419;47.438;19.026;2022-08-21T13:27:03;99137.81;;;21.73;94.34
54512;BME280;40419;47.438;19.026;2022-08-21T13:29:33;99143.69;;;21.37;100.00
54512;BME280;40419;47.438;19.026;2022-08-21T13:32:04;99140.66;;;21.38;100.00
54512;BME280;40419;47.438;19.026;2022-08-21T13:34:37;99155.03;;;21.30;100.00
54512;BME280;40419;47.438;19.026;2022-08-21T13:37:05;99158.44;;;21.22;100.00
54512;BME280;40419;47.438;19.026;2022-08-21T13:39:34;99158.31;;;21.03;100.00
54512;BME280;40419;47.438;19.026;2022-08-21T13:42:02;99155.13;;;20.96;100.00
54512;BME280;40419;47.438;19.026;2022-08-21T13:44:40;99161.22;;;20.87;100.00
54512;BME280;40419;47.438;19.026;2022-08-21T13:47:10;99158.53;;;20.82;100.00
54512;BME280;40419;47.438;19.026;2022-08-21T13:49:46;99157.44;;;20.78;100.00
54512;BME280;40419;47.438;19.026;2022-08-21T13:52:26;99156.94;;;20.76;100.00
54512;BME280;40419;47.438;19.026;2022-08-21T13:55:00;99142.44;;;20.60;100.00
54512;BME280;40419;47.438;19.026;2022-08-21T13:57:32;99146.66;;;20.47;100.00
54512;BME280;40419;47.438;19.026;2022-08-21T14:00:27;99143.91;;;20.47;100.00
54512;BME280;40419;47.438;19.026;2022-08-21T14:03:00;99135.44;;;20.39;100.00
54512;BME280;40419;47.438;19.026;2022-08-21T14:05:33;99135.75;;;20.37;100.00
54512;BME280;40419;47.438;19.026;2022-08-21T14:08:14;99142.66;;;20.29;100.00
54512;BME280;40419;47.438;19.026;2022-08-21T14:10:48;99142.94;;;20.28;100.00
54512;BME280;40419;47.438;19.026;2022-08-21T14:13:37;99151.50;;;20.21;100.00
54512;BME280;40419;47.438;19.026;2022-08-21T14:16:11;99146.31;;;20.14;100.00
54512;BME280;40419;47.438;19.026;2022-08-21T14:21:40;99149.63;;;20.11;100.00
54512;BME280;40419;47.438;19.026;2022-08-21T14:24:14;99153.25;;;20.01;100.00
54512;BME280;40419;47.438;19.026;2022-08-21T14:27:04;99154.38;;;20.00;100.00